Norden, CA

5:16 PM PDT on August 04, 2015 (GMT -0700)
PlaVada | | Change Station
CLOSE
Current Station
Personal Weather Station
Location: Soda Springs, CA
Elevation: 6089 ft
Nearby Weather Stations

Elev 6089 ft 39.32 °N, 120.45 °W | Updated 11 minutes ago

Mostly Cloudy
Mostly Cloudy
76.3 °F
Feels Like 78 °F
N
3.2
Wind Variable Wind from SSW

Today
High -- | Low -- °F
--% Chance of Precip.
Yesterday
High -- | Low -- °F
Precip. -- in
6:04 AM 8:10 PM
Waning Gibbous, 73% visible
Pressure 29.89 in
Visibility 10.0 miles
Clouds Few 11000 ft
Heat Index 78 °F
Dew Point 45 °F
Humidity 33%
Rainfall 0.00 in
Snow Depth Not available.
UV 5 out of 12
Pollen 6.30 out of 12
Air Quality Not available.
Flu Activity Not available.
METAR KBLU 042352Z AUTO VRB05KT 10SM FEW110 21/08 A3016 RMK AO2 SLP121 T02110078 10228 20189 58007

More Conditions Fewer Conditions

Pressure 29.89 in
Visibility 10.0 miles
Clouds Few 11000 ft
Heat Index 78 °F
Dew Point 45 °F
Humidity 33%
Rainfall 0.00 in
Snow Depth Not available.
UV 5 out of 12
Pollen 6.30 out of 12
Air Quality Not available.
Flu Activity Not available.
METAR KBLU 042352Z AUTO VRB05KT 10SM FEW110 21/08 A3016 RMK AO2 SLP121 T02110078 10228 20189 58007

More Conditions Fewer Conditions

10-Day Weather Forecast

×

Almanac

Astronomy

Aug. 04, 2015 Rise Set
Actual Time
Civil Twilight
Nautical Twilight
Astronomical Twilight
Moon
Length of Visible Light
Length of Day
Tomorrow will be .
, % of the Moon is Illuminated

Today's Extremes

State Highs State Lows

Community

WunderPhotos

Upload Photos

1,844,034 photos uploaded!

WunderBlogs® & News

Nearby

Air Quality

  Air Quality AQ Index Pollutant
Not available.

Snow Depth

Station Depth Elevation

Earthquake Activity

City Distance Mag. Time & Date
Minimum magnitude displayed is 2.5.

Coastal Water Temperatures

Place Temperature

Stations

Nearby Weather Stations

Station Location Temp. Windchill Dew Point Humidity Wind Precip. Elev Updated Type